Yushun — JD3877 — position and weather

sailwx.info

Track history (hours):
 
Tides and Currents Weather Stations Pressure Air Temp Water Temp Dewpoint Dewpoint Depression Visibility Wind Speed Wind Dir Waves Ship Positions

Yushun

Last reported at 2018-Jul-22 09:29 UTC. Time now 2018-Jul-22 16:33 UTC.
Position N 34°52' E 139°48'.

Length 63 m; draft 4 m.

Type: Tanker. MMSI: 431006555.

Date/timePositionNaut miles runAvg speedWind from/ knotsBaromVisibWave heightAir tempDewpointWater temp
2018-Jul-22 09:29N 34°52' E 139°48'612.7
2018-Jul-22 09:00N 34°57' E 139°43'611.8
2018-Jul-22 08:30N 35°03' E 139°44'611.8
2018-Jul-22 08:01N 35°08' E 139°45'611.8
2018-Jul-22 07:30N 35°14' E 139°46'612.3
2018-Jul-22 07:00N 35°20' E 139°43'611.4
2018-Jul-22 06:30N 35°25' E 139°44'4 7.9
2018-Jul-22 06:00N 35°29' E 139°46'0 0.0
2018-Jul-22 05:30N 35°29' E 139°46'0 0.0
2018-Jul-22 04:56N 35°29' E 139°46'0 0.0
2018-Jul-22 04:29N 35°29' E 139°46'0 0.1
2018-Jul-22 04:00N 35°29' E 139°46'0 0.0
2018-Jul-22 03:30N 35°29' E 139°46'0 0.0
2018-Jul-22 03:00N 35°29' E 139°46'1 2.4
2018-Jul-22 02:30N 35°30' E 139°47'2 3.4
2018-Jul-22 02:00N 35°31' E 139°46'0 0.0
2018-Jul-22 01:30N 35°31' E 139°46'0 0.0
2018-Jul-22 01:00N 35°31' E 139°46'0 0.0
2018-Jul-22 00:30N 35°31' E 139°46'0 0.0
2018-Jul-22 00:00N 35°31' E 139°46'0 0.0
2018-Jul-21 23:30N 35°31' E 139°46'0 0.0
2018-Jul-21 23:00N 35°31' E 139°46'1 2.3
2018-Jul-21 22:30N 35°30' E 139°47'1 3.0
2018-Jul-21 22:00N 35°29' E 139°46'0 0.0
2018-Jul-21 21:30N 35°29' E 139°46'0 0.0
2018-Jul-21 21:00N 35°29' E 139°46'0 0.0
2018-Jul-21 20:30N 35°29' E 139°46'0 0.0
2018-Jul-21 20:00N 35°29' E 139°46'0 0.0
2018-Jul-21 19:30N 35°29' E 139°46'0 0.0
2018-Jul-21 19:00N 35°29' E 139°46'0 0.0
2018-Jul-21 18:30N 35°29' E 139°46'0 0.0
2018-Jul-21 18:00N 35°29' E 139°46'0 0.0
2018-Jul-21 17:30N 35°29' E 139°46'0 0.0
2018-Jul-21 17:00N 35°29' E 139°46'0 0.0
2018-Jul-21 16:30N 35°29' E 139°46'0 0.0
2018-Jul-21 16:00N 35°29' E 139°46'0 0.0
2018-Jul-21 15:30N 35°29' E 139°46'0 0.0
2018-Jul-21 15:00N 35°29' E 139°46'0 0.0
2018-Jul-21 14:30N 35°29' E 139°46'0 0.0
2018-Jul-21 13:30N 35°29' E 139°46'0 0.0
2018-Jul-21 13:00N 35°29' E 139°46'0 0.0
2018-Jul-21 12:30N 35°29' E 139°46'0 0.1
2018-Jul-21 12:00N 35°29' E 139°46'1 3.0
2018-Jul-21 11:30N 35°28' E 139°47'612.0
2018-Jul-21 11:00N 35°22' E 139°45'611.1
2018-Jul-21 10:30N 35°16' E 139°46'611.9
2018-Jul-21 10:00N 35°10' E 139°46'612.0
2018-Jul-21 09:31N 35°05' E 139°43'612.4
2018-Jul-21 09:00N 35°01' E 139°37'714.5
2018-Jul-21 08:29N 34°57' E 139°30'22710.9
2018-Jul-20 11:40N 33°48' E 135°08'411.6
2018-Jul-20 11:17N 33°51' E 135°04'310.7
2018-Jul-20 11:00N 33°54' E 135°02'611.4
2018-Jul-20 10:30N 33°60' E 135°02'611.2
2018-Jul-20 09:57N 34°06' E 135°02'511.3
2018-Jul-20 09:30N 34°11' E 135°03'611.6
2018-Jul-20 09:00N 34°17' E 135°03'611.7
2018-Jul-20 08:30N 34°22' E 135°07'611.4
2018-Jul-20 08:00N 34°26' E 135°11'610.9
2018-Jul-20 07:28N 34°31' E 135°15'511.2
2018-Jul-20 07:00N 34°35' E 135°20'611.0
2018-Jul-20 06:30N 34°39' E 135°24'3 5.7
2018-Jul-20 06:00N 34°38' E 135°28'0 0.0
2018-Jul-20 05:22N 34°38' E 135°28'0 0.0
2018-Jul-20 04:58N 34°38' E 135°28'0 0.0
2018-Jul-20 04:30N 34°38' E 135°28'0 0.0
2018-Jul-20 04:00N 34°38' E 135°28'0 0.0
2018-Jul-20 03:30N 34°38' E 135°28'1 1.6
2018-Jul-20 02:57N 34°38' E 135°27'2 3.1
2018-Jul-20 02:25N 34°40' E 135°27'0 0.0
2018-Jul-20 01:16N 34°40' E 135°27'0 0.0
2018-Jul-20 00:47N 34°40' E 135°27'0 0.0
2018-Jul-20 00:30N 34°40' E 135°27'0 0.0
2018-Jul-19 23:57N 34°40' E 135°27'0 0.0
2018-Jul-19 23:30N 34°40' E 135°27'0 0.0
2018-Jul-19 22:58N 34°40' E 135°27'0 0.0
2018-Jul-19 22:30N 34°40' E 135°27'0 0.0
2018-Jul-19 22:00N 34°40' E 135°27'0 0.0
2018-Jul-19 21:26N 34°40' E 135°27'0 0.0
2018-Jul-19 21:00N 34°40' E 135°27'0 0.0
2018-Jul-19 20:30N 34°40' E 135°27'0 0.0
2018-Jul-19 20:00N 34°40' E 135°27'0 0.0
2018-Jul-19 19:29N 34°40' E 135°27'0 0.0
2018-Jul-19 18:59N 34°40' E 135°27'0 0.0
2018-Jul-19 18:28N 34°40' E 135°27'0 0.0
2018-Jul-19 18:00N 34°40' E 135°27'0 0.0
2018-Jul-19 17:29N 34°40' E 135°27'0 0.0
2018-Jul-19 16:59N 34°40' E 135°27'0 0.0
2018-Jul-19 16:30N 34°40' E 135°27'0 0.0
2018-Jul-19 16:00N 34°40' E 135°27'0 0.0
2018-Jul-19 15:30N 34°40' E 135°27'0 0.0
2018-Jul-19 14:57N 34°40' E 135°27'0 0.0
2018-Jul-19 10:50N 34°40' E 135°27'0 0.0
2018-Jul-19 10:30N 34°40' E 135°27'0 0.0
2018-Jul-19 08:02N 34°40' E 135°27'0 0.0
2018-Jul-19 07:38N 34°40' E 135°27'0 0.0
2018-Jul-19 07:25N 34°40' E 135°27'0 0.0
2018-Jul-19 06:57N 34°40' E 135°27'0 0.0
2018-Jul-19 02:58N 34°40' E 135°27'3 6.5
2018-Jul-19 02:30N 34°38' E 135°24'611.6
2018-Jul-19 02:00N 34°36' E 135°18'611.5
2018-Jul-19 01:30N 34°35' E 135°11'712.4
2018-Jul-19 00:58N 34°36' E 135°03'1511.8
2018-Jul-18 23:40N 34°31' E 134°45'211.9
2018-Jul-18 23:30N 34°30' E 134°43'611.6
2018-Jul-18 23:00N 34°28' E 134°36'612.0
2018-Jul-18 22:30N 34°26' E 134°29'  
2018-Jul-14 13:22N 34°26' E 134°01'513.5
2018-Jul-14 12:57N 34°26' E 134°07'714.6
2018-Jul-14 12:31N 34°24' E 134°15'713.4
2018-Jul-14 11:59N 34°26' E 134°23'612.8
2018-Jul-14 11:29N 34°28' E 134°30'612.5
2018-Jul-14 10:59N 34°30' E 134°37'613.0
2018-Jul-14 10:30N 34°33' E 134°44'714.3
2018-Jul-14 10:00N 34°35' E 134°52'912.6
2018-Jul-14 09:19N 34°36' E 135°03'411.4
2018-Jul-14 09:00N 34°36' E 135°07'510.8
2018-Jul-14 08:30N 34°35' E 135°13'5 9.5
2018-Jul-14 08:00N 34°34' E 135°19'5 9.0
2018-Jul-14 07:28N 34°34' E 135°25'0 0.0
2018-Jul-14 06:41N 34°34' E 135°25'0 0.0
2018-Jul-14 06:25N 34°34' E 135°25'0 0.0
2018-Jul-14 05:49N 34°34' E 135°25'0 0.0
2018-Jul-14 05:01N 34°34' E 135°25'0 0.1
2018-Jul-14 04:58N 34°34' E 135°25'4 8.0
2018-Jul-14 04:30N 34°34' E 135°20'611.4
2018-Jul-14 04:00N 34°34' E 135°14'712.7
2018-Jul-14 03:27N 34°35' E 135°05'812.7
2018-Jul-14 02:51N 34°36' E 134°56'512.8
2018-Jul-14 02:29N 34°39' E 134°51'5 0.8
2018-Jul-13 19:39N 34°43' E 134°48'0 0.0
2018-Jul-13 19:27N 34°43' E 134°48'0 0.0
2018-Jul-13 18:22N 34°43' E 134°48'0 0.0
2018-Jul-13 13:29N 34°43' E 134°48'1 0.1
2018-Jul-13 08:51N 34°43' E 134°48'412.3
2018-Jul-13 08:30N 34°39' E 134°51'712.8
2018-Jul-13 07:59N 34°38' E 134°59'510.8
2018-Jul-13 07:30N 34°36' E 135°05'611.3
2018-Jul-13 07:00N 34°35' E 135°11'611.6
2018-Jul-13 06:29N 34°34' E 135°19'5 1.1
2018-Jul-13 01:41N 34°34' E 135°25'1 3.1
2018-Jul-13 01:31N 34°33' E 135°24'611.3
2018-Jul-13 01:00N 34°34' E 135°17'611.3
2018-Jul-13 00:30N 34°35' E 135°11'611.6
2018-Jul-13 00:00N 34°35' E 135°04'9 9.1
2018-Jul-12 23:01N 34°35' E 134°53'010.8
2018-Jul-12 23:00N 34°35' E 134°53'710.3
2018-Jul-12 22:19N 34°31' E 134°45'411.2
2018-Jul-12 22:00N 34°30' E 134°41'611.6
2018-Jul-12 21:30N 34°28' E 134°35'611.5
2018-Jul-12 21:00N 34°26' E 134°28'  
Track history (hours):
 
Tides and Currents Weather Stations Pressure Air Temp Water Temp Dewpoint Dewpoint Depression Visibility Wind Speed Wind Dir Waves Ship Positions

Yushun

Last reported at 2018-Jul-22 09:29 UTC. Time now 2018-Jul-22 16:33 UTC.
Position N 34°52' E 139°48'.

Length 63 m; draft 4 m.

Type: Tanker. MMSI: 431006555.

Date/timePositionNaut miles runAvg speedWind from/ knotsBaromVisibWave heightAir tempDewpointWater temp
2018-Jul-22 09:29N 34°52' E 139°48'612.7
2018-Jul-22 09:00N 34°57' E 139°43'611.8
2018-Jul-22 08:30N 35°03' E 139°44'611.8
2018-Jul-22 08:01N 35°08' E 139°45'611.8
2018-Jul-22 07:30N 35°14' E 139°46'612.3
2018-Jul-22 07:00N 35°20' E 139°43'611.4
2018-Jul-22 06:30N 35°25' E 139°44'4 7.9
2018-Jul-22 06:00N 35°29' E 139°46'0 0.0
2018-Jul-22 05:30N 35°29' E 139°46'0 0.0
2018-Jul-22 04:56N 35°29' E 139°46'0 0.0
2018-Jul-22 04:29N 35°29' E 139°46'0 0.1
2018-Jul-22 04:00N 35°29' E 139°46'0 0.0
2018-Jul-22 03:30N 35°29' E 139°46'0 0.0
2018-Jul-22 03:00N 35°29' E 139°46'1 2.4
2018-Jul-22 02:30N 35°30' E 139°47'2 3.4
2018-Jul-22 02:00N 35°31' E 139°46'0 0.0
2018-Jul-22 01:30N 35°31' E 139°46'0 0.0
2018-Jul-22 01:00N 35°31' E 139°46'0 0.0
2018-Jul-22 00:30N 35°31' E 139°46'0 0.0
2018-Jul-22 00:00N 35°31' E 139°46'0 0.0
2018-Jul-21 23:30N 35°31' E 139°46'0 0.0
2018-Jul-21 23:00N 35°31' E 139°46'1 2.3
2018-Jul-21 22:30N 35°30' E 139°47'1 3.0
2018-Jul-21 22:00N 35°29' E 139°46'0 0.0
2018-Jul-21 21:30N 35°29' E 139°46'0 0.0
2018-Jul-21 21:00N 35°29' E 139°46'0 0.0
2018-Jul-21 20:30N 35°29' E 139°46'0 0.0
2018-Jul-21 20:00N 35°29' E 139°46'0 0.0
2018-Jul-21 19:30N 35°29' E 139°46'0 0.0
2018-Jul-21 19:00N 35°29' E 139°46'0 0.0
2018-Jul-21 18:30N 35°29' E 139°46'0 0.0
2018-Jul-21 18:00N 35°29' E 139°46'0 0.0
2018-Jul-21 17:30N 35°29' E 139°46'0 0.0
2018-Jul-21 17:00N 35°29' E 139°46'0 0.0
2018-Jul-21 16:30N 35°29' E 139°46'0 0.0
2018-Jul-21 16:00N 35°29' E 139°46'0 0.0
2018-Jul-21 15:30N 35°29' E 139°46'0 0.0
2018-Jul-21 15:00N 35°29' E 139°46'0 0.0
2018-Jul-21 14:30N 35°29' E 139°46'0 0.0
2018-Jul-21 13:30N 35°29' E 139°46'0 0.0
2018-Jul-21 13:00N 35°29' E 139°46'0 0.0
2018-Jul-21 12:30N 35°29' E 139°46'0 0.1
2018-Jul-21 12:00N 35°29' E 139°46'1 3.0
2018-Jul-21 11:30N 35°28' E 139°47'612.0
2018-Jul-21 11:00N 35°22' E 139°45'611.1
2018-Jul-21 10:30N 35°16' E 139°46'611.9
2018-Jul-21 10:00N 35°10' E 139°46'612.0
2018-Jul-21 09:31N 35°05' E 139°43'612.4
2018-Jul-21 09:00N 35°01' E 139°37'714.5
2018-Jul-21 08:29N 34°57' E 139°30'22710.9
2018-Jul-20 11:40N 33°48' E 135°08'411.6
2018-Jul-20 11:17N 33°51' E 135°04'310.7
2018-Jul-20 11:00N 33°54' E 135°02'611.4
2018-Jul-20 10:30N 33°60' E 135°02'611.2
2018-Jul-20 09:57N 34°06' E 135°02'511.3
2018-Jul-20 09:30N 34°11' E 135°03'611.6
2018-Jul-20 09:00N 34°17' E 135°03'611.7
2018-Jul-20 08:30N 34°22' E 135°07'611.4
2018-Jul-20 08:00N 34°26' E 135°11'610.9
2018-Jul-20 07:28N 34°31' E 135°15'511.2
2018-Jul-20 07:00N 34°35' E 135°20'611.0
2018-Jul-20 06:30N 34°39' E 135°24'3 5.7
2018-Jul-20 06:00N 34°38' E 135°28'0 0.0
2018-Jul-20 05:22N 34°38' E 135°28'0 0.0
2018-Jul-20 04:58N 34°38' E 135°28'0 0.0
2018-Jul-20 04:30N 34°38' E 135°28'0 0.0
2018-Jul-20 04:00N 34°38' E 135°28'0 0.0
2018-Jul-20 03:30N 34°38' E 135°28'1 1.6
2018-Jul-20 02:57N 34°38' E 135°27'2 3.1
2018-Jul-20 02:25N 34°40' E 135°27'0 0.0
2018-Jul-20 01:16N 34°40' E 135°27'0 0.0
2018-Jul-20 00:47N 34°40' E 135°27'0 0.0
2018-Jul-20 00:30N 34°40' E 135°27'0 0.0
2018-Jul-19 23:57N 34°40' E 135°27'0 0.0
2018-Jul-19 23:30N 34°40' E 135°27'0 0.0
2018-Jul-19 22:58N 34°40' E 135°27'0 0.0
2018-Jul-19 22:30N 34°40' E 135°27'0 0.0
2018-Jul-19 22:00N 34°40' E 135°27'0 0.0
2018-Jul-19 21:26N 34°40' E 135°27'0 0.0
2018-Jul-19 21:00N 34°40' E 135°27'0 0.0
2018-Jul-19 20:30N 34°40' E 135°27'0 0.0
2018-Jul-19 20:00N 34°40' E 135°27'0 0.0
2018-Jul-19 19:29N 34°40' E 135°27'0 0.0
2018-Jul-19 18:59N 34°40' E 135°27'0 0.0
2018-Jul-19 18:28N 34°40' E 135°27'0 0.0
2018-Jul-19 18:00N 34°40' E 135°27'0 0.0
2018-Jul-19 17:29N 34°40' E 135°27'0 0.0
2018-Jul-19 16:59N 34°40' E 135°27'0 0.0
2018-Jul-19 16:30N 34°40' E 135°27'0 0.0
2018-Jul-19 16:00N 34°40' E 135°27'0 0.0
2018-Jul-19 15:30N 34°40' E 135°27'0 0.0
2018-Jul-19 14:57N 34°40' E 135°27'0 0.0
2018-Jul-19 10:50N 34°40' E 135°27'0 0.0
2018-Jul-19 10:30N 34°40' E 135°27'0 0.0
2018-Jul-19 08:02N 34°40' E 135°27'0 0.0
2018-Jul-19 07:38N 34°40' E 135°27'0 0.0
2018-Jul-19 07:25N 34°40' E 135°27'0 0.0
2018-Jul-19 06:57N 34°40' E 135°27'0 0.0
2018-Jul-19 02:58N 34°40' E 135°27'3 6.5
2018-Jul-19 02:30N 34°38' E 135°24'611.6
2018-Jul-19 02:00N 34°36' E 135°18'611.5
2018-Jul-19 01:30N 34°35' E 135°11'712.4
2018-Jul-19 00:58N 34°36' E 135°03'1511.8
2018-Jul-18 23:40N 34°31' E 134°45'211.9
2018-Jul-18 23:30N 34°30' E 134°43'611.6
2018-Jul-18 23:00N 34°28' E 134°36'612.0
2018-Jul-18 22:30N 34°26' E 134°29'  
2018-Jul-14 13:22N 34°26' E 134°01'513.5
2018-Jul-14 12:57N 34°26' E 134°07'714.6
2018-Jul-14 12:31N 34°24' E 134°15'713.4
2018-Jul-14 11:59N 34°26' E 134°23'612.8
2018-Jul-14 11:29N 34°28' E 134°30'612.5
2018-Jul-14 10:59N 34°30' E 134°37'613.0
2018-Jul-14 10:30N 34°33' E 134°44'714.3
2018-Jul-14 10:00N 34°35' E 134°52'912.6
2018-Jul-14 09:19N 34°36' E 135°03'411.4
2018-Jul-14 09:00N 34°36' E 135°07'510.8
2018-Jul-14 08:30N 34°35' E 135°13'5 9.5
2018-Jul-14 08:00N 34°34' E 135°19'5 9.0
2018-Jul-14 07:28N 34°34' E 135°25'0 0.0
2018-Jul-14 06:41N 34°34' E 135°25'0 0.0
2018-Jul-14 06:25N 34°34' E 135°25'0 0.0
2018-Jul-14 05:49N 34°34' E 135°25'0 0.0
2018-Jul-14 05:01N 34°34' E 135°25'0 0.1
2018-Jul-14 04:58N 34°34' E 135°25'4 8.0
2018-Jul-14 04:30N 34°34' E 135°20'611.4
2018-Jul-14 04:00N 34°34' E 135°14'712.7
2018-Jul-14 03:27N 34°35' E 135°05'812.7
2018-Jul-14 02:51N 34°36' E 134°56'512.8
2018-Jul-14 02:29N 34°39' E 134°51'5 0.8
2018-Jul-13 19:39N 34°43' E 134°48'0 0.0
2018-Jul-13 19:27N 34°43' E 134°48'0 0.0
2018-Jul-13 18:22N 34°43' E 134°48'0 0.0
2018-Jul-13 13:29N 34°43' E 134°48'1 0.1
2018-Jul-13 08:51N 34°43' E 134°48'412.3
2018-Jul-13 08:30N 34°39' E 134°51'712.8
2018-Jul-13 07:59N 34°38' E 134°59'510.8
2018-Jul-13 07:30N 34°36' E 135°05'611.3
2018-Jul-13 07:00N 34°35' E 135°11'611.6
2018-Jul-13 06:29N 34°34' E 135°19'5 1.1
2018-Jul-13 01:41N 34°34' E 135°25'1 3.1
2018-Jul-13 01:31N 34°33' E 135°24'611.3
2018-Jul-13 01:00N 34°34' E 135°17'611.3
2018-Jul-13 00:30N 34°35' E 135°11'611.6
2018-Jul-13 00:00N 34°35' E 135°04'9 9.1
2018-Jul-12 23:01N 34°35' E 134°53'010.8
2018-Jul-12 23:00N 34°35' E 134°53'710.3
2018-Jul-12 22:19N 34°31' E 134°45'411.2
2018-Jul-12 22:00N 34°30' E 134°41'611.6
2018-Jul-12 21:30N 34°28' E 134°35'611.5
2018-Jul-12 21:00N 34°26' E 134°28'  

Dump ship's entire track history